»·PEaware :: SWA710 KPHX-KSAN

SWA710 :: KPHX-KSAN

FLIGHT INFORMATION

Flight Status: Arrived
Operator:
Southwest Airlines
More flights by this operator :: More flights under this callsign
Pilot: Dave P. (45)
Aircraft: BOEING 737-700
(B737)
More flights by this aircraft type
Origin: KPHX Phoenix Sky Harbor Intl
United States
Destination: KSAN San Diego Intl-Lindbergh
United States
More flights between these airports :: More routes between these airports
Route: +FYRBD1 MOHAK J2 HOGGZ LUCKI1
File this flight plan on PilotEdge
Remarks: PBN / A1B1C1D1S1S2 DOF / 181119 REG / N737PM EET / KZLA0022 OPR / SWA PER / C RMK / TCAS SIMBRIEF
Altitude:
(Current/Filed)
32,000ft
Speed:
(Current/Filed)
455kts
Departed: 18-Nov-18 05:40 PM
Arrived: 18-Nov-18 06:32 PM
Distance/Time
Traveled:
264nm/0:52
Distance/Time
To Go:
Arrived

Flight Plot

Page will automatically refresh every two minutes.

Flight plan parsing failed; only flown route is shown


Map Options




Map Legend


Flown Route
Filed Route
Departure Airport
Arrival Airport
Navaid (VOR, NDB)
Fix

Horizontal Profiles

Position Reports

Time Latitude Longitude Heading Altitude Ground
Speed
18-Nov-18 17:19 33.434390 -111.993766 270 1143ft 0kts
18-Nov-18 17:20 33.434390 -111.993766 270 1143ft 0kts
18-Nov-18 17:21 33.434390 -111.993766 270 1143ft 0kts
18-Nov-18 17:22 33.434390 -111.993766 270 1143ft 0kts
18-Nov-18 17:23 33.434390 -111.993766 270 1143ft 0kts
18-Nov-18 17:24 33.434390 -111.993766 270 1143ft 0kts
18-Nov-18 17:25 33.434390 -111.993766 270 1143ft 0kts
18-Nov-18 17:26 33.434390 -111.993766 270 1143ft 0kts
18-Nov-18 17:27 33.434390 -111.993766 270 1143ft 0kts
18-Nov-18 17:28 33.434390 -111.993766 270 1143ft 0kts
18-Nov-18 17:29 33.434390 -111.993766 270 1143ft 0kts
18-Nov-18 17:30 33.434390 -111.993766 270 1143ft 0kts
18-Nov-18 17:31 33.434390 -111.993766 270 1143ft 0kts
18-Nov-18 17:32 33.434390 -111.993766 270 1143ft 0kts
18-Nov-18 17:33 33.434390 -111.993766 270 1143ft 0kts
18-Nov-18 17:34 33.434390 -111.993766 270 1143ft 0kts
18-Nov-18 17:35 33.434382 -111.993247 270 1143ft 0kts
18-Nov-18 17:36 33.434382 -111.993247 270 1143ft 0kts
18-Nov-18 17:37 33.434382 -111.993248 270 1143ft 0kts
18-Nov-18 17:38 33.433360 -111.993008 180 1143ft 0kts
18-Nov-18 17:39 33.433284 -111.993008 180 1143ft 4kts
18-Nov-18 17:40 33.431951 -111.992840 223 1143ft 6kts
18-Nov-18 17:41 33.431929 -111.992865 223 1143ft 0kts
18-Nov-18 17:42 33.431015 -111.994495 267 1143ft 5kts
18-Nov-18 17:43 33.431031 -112.023298 270 1543ft 158kts
18-Nov-18 17:44 33.426280 -112.078127 251 3712ft 202kts
18-Nov-18 17:45 33.402749 -112.154276 241 6247ft 271kts
18-Nov-18 17:46 33.334060 -112.173788 154 9921ft 295kts
18-Nov-18 17:47 33.249320 -112.164249 214 12186ft 351kts
18-Nov-18 17:48 33.184585 -112.251918 237 15890ft 357kts
18-Nov-18 17:49 33.128929 -112.352631 241 19523ft 368kts
18-Nov-18 17:50 33.073933 -112.458276 241 21952ft 379kts
18-Nov-18 17:51 33.015977 -112.565083 241 24702ft 391kts
18-Nov-18 17:52 32.961172 -112.678286 255 26973ft 395kts
18-Nov-18 17:53 32.940623 -112.797569 262 28782ft 401kts
18-Nov-18 17:54 32.924169 -112.913838 262 30691ft 399kts
18-Nov-18 17:55 32.906083 -113.043853 262 32105ft 400kts
18-Nov-18 17:56 32.888453 -113.173456 262 32113ft 396kts
18-Nov-18 17:57 32.870634 -113.302904 262 32110ft 397kts
18-Nov-18 17:58 32.852779 -113.432698 262 32103ft 397kts
18-Nov-18 17:59 32.834513 -113.561884 262 32100ft 397kts
18-Nov-18 18:00 32.816066 -113.691531 262 32098ft 397kts
18-Nov-18 18:01 32.797717 -113.820696 262 32095ft 397kts
18-Nov-18 18:02 32.779072 -113.949959 263 32092ft 397kts
18-Nov-18 18:03 32.774990 -114.080809 272 32091ft 396kts
18-Nov-18 18:04 32.780593 -114.211384 273 32090ft 395kts
18-Nov-18 18:05 32.785757 -114.341781 273 32090ft 395kts
18-Nov-18 18:06 32.810661 -114.468543 286 32090ft 396kts
18-Nov-18 18:07 32.844593 -114.593385 286 32090ft 397kts
18-Nov-18 18:08 32.874702 -114.719440 276 32093ft 396kts
18-Nov-18 18:09 32.875996 -114.850288 269 32094ft 397kts
18-Nov-18 18:10 32.873509 -114.981662 269 32096ft 396kts
18-Nov-18 18:11 32.870710 -115.112875 269 32098ft 396kts
18-Nov-18 18:12 32.867394 -115.243569 269 31166ft 391kts
18-Nov-18 18:13 32.860951 -115.372212 262 28383ft 387kts
18-Nov-18 18:14 32.842811 -115.496946 261 25914ft 378kts
18-Nov-18 18:15 32.822844 -115.620352 261 24067ft 381kts
18-Nov-18 18:16 32.802686 -115.742459 260 22236ft 373kts
18-Nov-18 18:17 32.783485 -115.862203 264 20379ft 365kts
18-Nov-18 18:18 32.775069 -115.980386 266 18625ft 352kts
18-Nov-18 18:19 32.766534 -116.098012 266 16790ft 357kts
18-Nov-18 18:20 32.757604 -116.214166 265 15035ft 343kts
18-Nov-18 18:21 32.749284 -116.322192 265 13186ft 315kts
18-Nov-18 18:22 32.741244 -116.425287 265 11245ft 302kts
18-Nov-18 18:23 32.733391 -116.521060 263 10234ft 276kts
18-Nov-18 18:24 32.725278 -116.604766 263 9173ft 239kts
18-Nov-18 18:25 32.718621 -116.677079 264 8098ft 209kts
18-Nov-18 18:26 32.713271 -116.745071 264 7073ft 206kts
18-Nov-18 18:27 32.707837 -116.812479 261 6038ft 203kts
18-Nov-18 18:28 32.694119 -116.865710 251 5253ft 200kts
18-Nov-18 18:29 32.674701 -116.937492 265 3980ft 194kts
18-Nov-18 18:30 32.684838 -116.989273 286 3881ft 196kts
18-Nov-18 18:31 32.702098 -117.059949 286 2452ft 179kts
18-Nov-18 18:32 32.712782 -117.103986 286 1575ft 157kts
18-Nov-18 18:33 32.723920 -117.149915 286 687ft 135kts
18-Nov-18 18:34 32.733962 -117.191397 286 23ft 85kts
18-Nov-18 18:35 32.734258 -117.194791 231 23ft 0kts
18-Nov-18 18:36 32.732955 -117.194407 205 23ft 10kts
18-Nov-18 18:37 32.732520 -117.195487 312 23ft 0kts
18-Nov-18 18:38 32.732520 -117.195487 312 23ft 0kts
18-Nov-18 18:39 32.732520 -117.195487 312 23ft 0kts
18-Nov-18 18:40 32.732520 -117.195487 312 23ft 0kts

Navigation Log

Ident Type
Flight plan parsing failed, navigation log unavailable